createdAt,value
2022-11-05T00:02:07.935Z,6.80
2022-11-05T00:04:55.003Z,6.90
2022-11-05T00:07:47.960Z,6.90
2022-11-05T00:10:20.681Z,6.90
2022-11-05T00:13:07.529Z,7.00
2022-11-05T00:15:53.308Z,7.00
2022-11-05T00:18:22.144Z,7.00
2022-11-05T00:20:51.787Z,7.00
2022-11-05T00:23:37.795Z,7.00
2022-11-05T00:26:09.489Z,7.10
2022-11-05T00:28:40.922Z,7.00
2022-11-05T00:31:11.539Z,7.10
2022-11-05T00:33:40.668Z,7.00
2022-11-05T00:36:12.519Z,7.10
2022-11-05T00:38:41.351Z,7.00
2022-11-05T00:41:09.647Z,7.00
2022-11-05T00:43:55.772Z,7.00
2022-11-05T00:46:24.353Z,7.00
2022-11-05T00:49:10.512Z,7.10
2022-11-05T00:51:40.576Z,7.10
2022-11-05T00:54:09.365Z,7.10
2022-11-05T00:56:37.830Z,7.20
2022-11-05T00:59:06.934Z,7.20
2022-11-05T01:01:35.349Z,7.20
2022-11-05T01:04:04.252Z,7.20
2022-11-05T01:06:32.881Z,7.30
2022-11-05T01:09:02.570Z,7.30
2022-11-05T01:11:37.285Z,7.30
2022-11-05T01:14:08.695Z,7.40
2022-11-05T01:16:38.098Z,7.40
2022-11-05T01:19:08.183Z,7.40
2022-11-05T01:21:36.642Z,7.40
2022-11-05T01:24:07.267Z,7.40
2022-11-05T01:26:35.521Z,7.40
2022-11-05T01:29:04.079Z,7.40
2022-11-05T01:31:32.587Z,7.40
2022-11-05T01:34:01.768Z,7.30
2022-11-05T01:36:30.750Z,7.30
2022-11-05T01:38:59.207Z,7.30
2022-11-05T01:41:28.942Z,7.30
2022-11-05T01:43:59.935Z,7.20
2022-11-05T01:46:33.955Z,7.20
2022-11-05T01:49:07.754Z,7.20
2022-11-05T01:51:37.392Z,7.20
2022-11-05T01:54:09.120Z,7.20
2022-11-05T01:56:42.043Z,7.10
2022-11-05T01:59:13.501Z,7.10
2022-11-05T02:01:41.913Z,7.10
2022-11-05T02:04:14.639Z,7.10
2022-11-05T02:06:46.341Z,7.10
2022-11-05T02:09:21.026Z,7.10
2022-11-05T02:11:51.806Z,7.20
2022-11-05T02:14:20.472Z,7.20
2022-11-05T02:16:53.807Z,7.10
2022-11-05T02:19:56.804Z,7.10
2022-11-05T02:23:00.428Z,7.00
2022-11-05T02:25:52.985Z,6.90
2022-11-05T02:28:45.579Z,6.90
2022-11-05T02:31:24.662Z,6.90
2022-11-05T02:33:59.834Z,6.90
2022-11-05T02:36:39.914Z,6.90
2022-11-05T02:39:20.831Z,7.00
2022-11-05T02:42:05.156Z,6.90
2022-11-05T02:44:41.451Z,6.90
2022-11-05T02:47:19.792Z,6.90
2022-11-05T02:49:54.315Z,6.90
2022-11-05T02:52:29.799Z,6.90
2022-11-05T02:55:00.674Z,6.80
2022-11-05T02:57:30.720Z,6.90
2022-11-05T03:00:03.307Z,6.90
2022-11-05T03:02:34.574Z,7.00
2022-11-05T03:05:04.249Z,7.00
2022-11-05T03:07:43.326Z,7.00
2022-11-05T03:10:34.788Z,7.00
2022-11-05T03:13:11.999Z,7.00
2022-11-05T03:15:51.736Z,6.90
2022-11-05T03:18:28.365Z,7.00
2022-11-05T03:21:04.535Z,7.00
2022-11-05T03:23:41.500Z,7.10
2022-11-05T03:26:17.448Z,7.10
2022-11-05T03:28:51.487Z,7.20
2022-11-05T03:31:21.708Z,7.20
2022-11-05T03:33:52.873Z,7.20
2022-11-05T03:36:25.199Z,7.20
2022-11-05T03:38:58.134Z,7.10
2022-11-05T03:41:27.704Z,7.10
2022-11-05T03:43:58.426Z,7.00
2022-11-05T03:46:30.892Z,7.00
2022-11-05T03:49:03.879Z,7.10
2022-11-05T03:51:43.177Z,7.10
2022-11-05T03:54:12.020Z,7.20
2022-11-05T03:56:45.484Z,7.20
2022-11-05T03:59:14.667Z,7.10
2022-11-05T04:01:43.698Z,7.10
2022-11-05T04:04:13.326Z,7.20
2022-11-05T04:07:51.533Z,7.30
2022-11-05T04:10:37.717Z,7.30
2022-11-05T04:13:24.195Z,7.40
2022-11-05T04:16:10.208Z,7.50
2022-11-05T04:18:39.072Z,7.60
2022-11-05T04:21:27.393Z,7.60
2022-11-05T04:24:12.055Z,7.70
2022-11-05T04:26:43.750Z,7.70
2022-11-05T04:29:29.318Z,7.70
2022-11-05T04:31:58.138Z,7.70
2022-11-05T04:34:26.982Z,7.70
2022-11-05T04:36:56.611Z,7.70
2022-11-05T04:39:25.391Z,7.70
2022-11-05T04:41:53.700Z,7.60
2022-11-05T04:44:22.380Z,7.60
2022-11-05T04:46:50.599Z,7.60
2022-11-05T04:49:19.284Z,7.60
2022-11-05T04:51:47.490Z,7.70
2022-11-05T04:54:17.754Z,7.70
2022-11-05T04:56:46.372Z,7.70
2022-11-05T04:59:14.699Z,7.70
2022-11-05T05:01:43.320Z,7.80
2022-11-05T05:04:11.652Z,7.80
2022-11-05T05:06:40.364Z,7.80
2022-11-05T05:09:08.741Z,7.80
2022-11-05T05:11:38.768Z,7.80
2022-11-05T05:14:07.151Z,7.80
2022-11-05T05:16:35.575Z,7.70
2022-11-05T05:19:03.800Z,7.60
2022-11-05T05:21:40.584Z,7.60
2022-11-05T05:24:10.996Z,7.60
2022-11-05T05:26:41.954Z,7.60
2022-11-05T05:29:10.832Z,7.60
2022-11-05T05:31:39.760Z,7.60
2022-11-05T05:34:09.404Z,7.60
2022-11-05T05:36:37.684Z,7.60
2022-11-05T05:41:55.055Z,7.70
2022-11-05T05:44:23.643Z,7.60
2022-11-05T05:46:52.090Z,7.60
2022-11-05T05:49:20.571Z,7.60
2022-11-05T05:51:49.599Z,7.50
2022-11-05T05:54:18.468Z,7.60
2022-11-05T05:56:47.263Z,7.60
2022-11-05T05:59:19.987Z,7.60
2022-11-05T06:01:48.322Z,7.60
2022-11-05T06:04:16.946Z,7.60
2022-11-05T06:06:46.855Z,7.60
2022-11-05T06:09:15.650Z,7.60
2022-11-05T06:11:44.594Z,7.60
2022-11-05T06:14:13.572Z,7.70
2022-11-05T06:16:43.382Z,7.70
2022-11-05T06:19:11.754Z,7.70
2022-11-05T06:24:29.911Z,7.70
2022-11-05T06:26:58.598Z,7.70
2022-11-05T06:29:26.919Z,7.70
2022-11-05T06:31:57.011Z,7.80
2022-11-05T06:34:25.291Z,7.80
2022-11-05T06:36:54.149Z,7.80
2022-11-05T06:39:22.460Z,7.80
2022-11-05T06:42:16.716Z,7.90
2022-11-05T06:44:39.802Z,7.90
2022-11-05T06:47:09.806Z,7.90
2022-11-05T06:49:38.188Z,7.90
2022-11-05T06:52:06.483Z,7.80
2022-11-05T06:54:35.142Z,7.90
2022-11-05T06:57:04.393Z,7.80
2022-11-05T06:59:32.972Z,7.80
2022-11-05T07:02:01.302Z,7.80
2022-11-05T07:04:31.541Z,7.70
2022-11-05T07:07:09.511Z,7.80
2022-11-05T07:09:43.264Z,7.80
2022-11-05T07:12:11.708Z,7.80
2022-11-05T07:14:40.416Z,7.80
2022-11-05T07:17:08.693Z,7.80
2022-11-05T07:19:38.746Z,7.80
2022-11-05T07:22:07.009Z,7.90
2022-11-05T07:24:35.690Z,7.90
2022-11-05T07:27:03.967Z,7.90
2022-11-05T07:29:32.246Z,8.00
2022-11-05T07:32:00.910Z,8.00
2022-11-05T07:34:29.218Z,8.00
2022-11-05T07:37:00.699Z,8.00
2022-11-05T07:39:29.388Z,8.00
2022-11-05T07:41:59.384Z,8.00
2022-11-05T07:44:34.636Z,8.10
2022-11-05T07:47:03.542Z,8.20
2022-11-05T07:49:31.802Z,8.20
2022-11-05T07:52:01.935Z,8.20
2022-11-05T07:54:30.239Z,8.20
2022-11-05T07:56:58.721Z,8.20
2022-11-05T07:59:26.962Z,8.20
2022-11-05T08:01:55.788Z,8.30
2022-11-05T08:04:24.228Z,8.30
2022-11-05T08:06:52.623Z,8.40
2022-11-05T08:09:22.368Z,8.40
2022-11-05T08:11:53.037Z,8.40
2022-11-05T08:14:22.113Z,8.50
2022-11-05T08:16:50.576Z,8.50
2022-11-05T08:19:19.890Z,8.50
2022-11-05T08:21:48.231Z,8.60
2022-11-05T08:24:16.661Z,8.60
2022-11-05T08:26:46.338Z,8.60
2022-11-05T08:29:14.815Z,8.70
2022-11-05T08:31:43.039Z,8.70
2022-11-05T08:34:11.652Z,8.70
2022-11-05T08:36:42.280Z,8.80
2022-11-05T08:39:15.797Z,8.80
2022-11-05T08:41:47.372Z,8.90
2022-11-05T08:44:15.633Z,8.90
2022-11-05T08:46:44.720Z,8.80
2022-11-05T08:49:13.126Z,8.90
2022-11-05T08:51:41.368Z,8.90
2022-11-05T08:54:09.695Z,8.90
2022-11-05T08:56:38.349Z,9.00
2022-11-05T08:59:07.966Z,9.00
2022-11-05T09:01:36.626Z,9.00
2022-11-05T09:04:05.955Z,8.90
2022-11-05T09:06:34.667Z,8.90
2022-11-05T09:09:03.058Z,8.90
2022-11-05T09:11:56.905Z,8.90
2022-11-05T09:14:21.484Z,9.00
2022-11-05T09:16:49.828Z,9.00
2022-11-05T09:19:18.483Z,9.00
2022-11-05T09:21:46.907Z,9.00
2022-11-05T09:24:15.664Z,9.00
2022-11-05T09:26:43.875Z,9.00
2022-11-05T09:29:14.542Z,9.00
2022-11-05T09:31:44.407Z,9.10
2022-11-05T09:34:13.193Z,9.10
2022-11-05T09:36:41.573Z,9.10
2022-11-05T09:39:13.145Z,9.10
2022-11-05T09:41:43.506Z,9.20
2022-11-05T09:44:16.593Z,9.20
2022-11-05T09:46:49.961Z,9.10
2022-11-05T09:49:27.578Z,9.10
2022-11-05T09:51:58.571Z,9.10
2022-11-05T09:54:32.174Z,9.10
2022-11-05T09:57:02.178Z,9.20
2022-11-05T09:59:36.407Z,9.10
2022-11-05T10:02:14.015Z,9.20
2022-11-05T10:04:46.284Z,9.30
2022-11-05T10:07:18.166Z,9.30
2022-11-05T10:09:49.927Z,9.30
2022-11-05T10:12:25.227Z,9.40
2022-11-05T10:15:04.014Z,9.50
2022-11-05T10:17:39.026Z,9.50
2022-11-05T10:20:16.198Z,9.50
2022-11-05T10:22:49.334Z,9.60
2022-11-05T10:25:20.668Z,9.80
2022-11-05T10:27:51.630Z,10.10
2022-11-05T10:30:21.823Z,10.30
2022-11-05T10:32:55.724Z,10.30
2022-11-05T10:35:26.339Z,10.30
2022-11-05T10:37:54.659Z,10.30
2022-11-05T10:40:33.701Z,10.30
2022-11-05T10:43:06.716Z,10.30
2022-11-05T10:45:44.716Z,10.30
2022-11-05T10:48:43.654Z,10.30
2022-11-05T10:51:13.779Z,10.50
2022-11-05T10:53:51.513Z,10.40
2022-11-05T10:56:32.003Z,10.30
2022-11-05T10:59:01.827Z,10.20
2022-11-05T11:01:31.714Z,10.00
2022-11-05T11:04:14.661Z,9.90
2022-11-05T11:06:49.660Z,9.90
2022-11-05T11:09:24.273Z,9.90
2022-11-05T11:12:02.510Z,10.10
2022-11-05T11:14:32.017Z,10.70
2022-11-05T11:17:24.798Z,12.00
2022-11-05T11:20:20.874Z,12.50
2022-11-05T11:23:04.383Z,12.20
2022-11-05T11:25:47.217Z,11.70
2022-11-05T11:28:21.510Z,11.30
2022-11-05T11:30:52.779Z,11.00
2022-11-05T11:33:24.480Z,10.80
2022-11-05T11:35:54.336Z,10.60
2022-11-05T11:38:26.322Z,10.50
2022-11-05T11:41:02.286Z,10.40
2022-11-05T11:43:35.468Z,10.30
2022-11-05T11:46:09.899Z,10.30
2022-11-05T11:48:45.955Z,10.40
2022-11-05T11:51:21.167Z,10.60
2022-11-05T11:53:50.883Z,10.60
2022-11-05T11:56:20.884Z,10.50
2022-11-05T11:58:51.519Z,10.40
2022-11-05T12:01:37.677Z,10.30
2022-11-05T12:04:32.513Z,10.30
2022-11-05T12:07:21.576Z,10.20
2022-11-05T12:10:11.555Z,10.10
2022-11-05T12:12:47.066Z,10.10
2022-11-05T12:15:29.919Z,10.00
2022-11-05T12:18:03.064Z,10.00
2022-11-05T12:21:02.434Z,9.90
2022-11-05T12:23:53.975Z,9.80
2022-11-05T12:26:30.090Z,9.70
2022-11-05T12:29:18.729Z,9.80
2022-11-05T12:31:55.545Z,9.80
2022-11-05T12:34:38.813Z,9.80
2022-11-05T12:37:17.360Z,9.80
2022-11-05T12:39:58.091Z,9.80
2022-11-05T12:42:40.164Z,9.90
2022-11-05T12:45:23.461Z,9.90
2022-11-05T12:48:05.492Z,9.90
2022-11-05T12:50:42.408Z,9.90
2022-11-05T12:53:44.691Z,9.90
2022-11-05T12:56:20.937Z,9.90
2022-11-05T12:58:56.030Z,9.90
2022-11-05T13:01:29.906Z,9.90
2022-11-05T13:04:02.183Z,9.90
2022-11-05T13:06:35.204Z,9.80
2022-11-05T13:09:08.785Z,9.80
2022-11-05T13:11:42.945Z,9.80
2022-11-05T13:14:15.980Z,9.80
2022-11-05T13:16:48.562Z,9.70
2022-11-05T13:19:22.539Z,9.80
2022-11-05T13:21:55.019Z,9.80
2022-11-05T13:24:27.484Z,9.80
2022-11-05T13:27:01.511Z,9.80
2022-11-05T13:29:36.468Z,9.80
2022-11-05T13:32:18.567Z,9.70
2022-11-05T13:34:47.451Z,9.70
2022-11-05T13:37:41.435Z,9.70
2022-11-05T13:40:14.525Z,9.70
2022-11-05T13:43:18.581Z,9.70
2022-11-05T13:46:06.239Z,9.70
2022-11-05T13:49:13.465Z,9.60
2022-11-05T13:51:50.255Z,9.60
2022-11-05T13:55:05.096Z,9.60
2022-11-05T13:58:22.210Z,9.50
2022-11-05T14:01:04.116Z,9.50
2022-11-05T14:03:32.647Z,9.60
2022-11-05T14:06:05.349Z,9.60
2022-11-05T14:08:40.088Z,9.50
2022-11-05T14:11:22.171Z,9.60
2022-11-05T14:13:56.308Z,9.50
2022-11-05T14:16:27.364Z,9.50
2022-11-05T14:19:15.105Z,9.50
2022-11-05T14:21:49.712Z,9.40
2022-11-05T14:24:39.890Z,9.50
2022-11-05T14:27:53.463Z,9.50
2022-11-05T14:30:43.467Z,9.40
2022-11-05T14:33:55.270Z,9.50
2022-11-05T14:36:36.284Z,9.50
2022-11-05T14:39:20.645Z,9.50
2022-11-05T14:41:57.804Z,9.50
2022-11-05T14:44:27.519Z,9.50
2022-11-05T14:46:59.359Z,9.50
2022-11-05T14:49:31.153Z,9.50
2022-11-05T14:52:01.301Z,9.40
2022-11-05T14:54:36.747Z,9.40
2022-11-05T14:57:05.340Z,9.40
2022-11-05T14:59:51.558Z,9.30
2022-11-05T15:02:23.951Z,9.30
2022-11-05T15:05:31.605Z,9.30
2022-11-05T15:08:31.638Z,9.30
2022-11-05T15:11:16.090Z,9.30
2022-11-05T15:13:52.488Z,9.30
2022-11-05T15:16:25.291Z,9.30
2022-11-05T15:18:56.237Z,9.30
2022-11-05T15:21:26.267Z,9.40
2022-11-05T15:23:57.784Z,9.30
2022-11-05T15:26:34.946Z,9.40
2022-11-05T15:29:03.312Z,9.40
2022-11-05T15:31:36.496Z,9.40
2022-11-05T15:34:18.333Z,9.30
2022-11-05T15:36:52.726Z,9.40
2022-11-05T15:39:31.960Z,9.40
2022-11-05T15:42:04.754Z,9.40
2022-11-05T15:44:35.075Z,9.40
2022-11-05T15:47:07.998Z,9.40
2022-11-05T15:49:36.437Z,9.40
2022-11-05T15:52:05.038Z,9.40
2022-11-05T15:54:34.823Z,9.40
2022-11-05T15:57:04.344Z,9.30
2022-11-05T15:59:32.638Z,9.30
2022-11-05T16:02:07.435Z,9.40
2022-11-05T16:04:36.390Z,9.30
2022-11-05T16:07:11.133Z,9.30
2022-11-05T16:09:45.001Z,9.40
2022-11-05T16:12:24.321Z,9.40
2022-11-05T16:15:00.821Z,9.40
2022-11-05T16:17:34.236Z,9.50
2022-11-05T16:20:18.524Z,9.50
2022-11-05T16:22:49.022Z,9.50
2022-11-05T16:28:43.170Z,9.50
2022-11-05T16:31:11.506Z,9.60
2022-11-05T16:33:43.648Z,9.60
2022-11-05T16:36:12.624Z,9.50
2022-11-05T16:38:41.554Z,9.50
2022-11-05T16:41:14.960Z,9.50
2022-11-05T16:43:52.796Z,9.50
2022-11-05T16:46:21.338Z,9.50
2022-11-05T16:48:49.678Z,9.40
2022-11-05T16:51:23.350Z,9.40
2022-11-05T16:53:55.252Z,9.40
2022-11-05T16:56:24.346Z,9.40
2022-11-05T16:58:54.100Z,9.40
2022-11-05T17:01:24.416Z,9.40
2022-11-05T17:03:53.843Z,9.30
2022-11-05T17:06:23.529Z,9.30
2022-11-05T17:08:51.828Z,9.30
2022-11-05T17:11:22.439Z,9.30
2022-11-05T17:13:51.396Z,9.30
2022-11-05T17:16:20.982Z,9.30
2022-11-05T17:18:49.768Z,9.30
2022-11-05T17:21:17.944Z,9.30
2022-11-05T17:23:46.652Z,9.30
2022-11-05T17:26:15.126Z,9.20
2022-11-05T17:28:43.961Z,9.20
2022-11-05T17:31:14.303Z,9.10
2022-11-05T17:33:44.250Z,9.10
2022-11-05T17:36:15.555Z,9.00
2022-11-05T17:38:44.474Z,9.10
2022-11-05T17:41:13.498Z,9.00
2022-11-05T17:43:42.299Z,9.00
2022-11-05T17:46:19.896Z,9.00
2022-11-05T17:48:51.287Z,9.00
2022-11-05T17:51:22.319Z,8.90
2022-11-05T17:53:51.259Z,8.90
2022-11-05T17:56:33.580Z,8.90
2022-11-05T17:59:02.983Z,8.90
2022-11-05T18:01:32.857Z,8.90
2022-11-05T18:04:08.670Z,8.90
2022-11-05T18:06:38.167Z,8.90
2022-11-05T18:09:07.568Z,8.90
2022-11-05T18:11:37.230Z,8.80
2022-11-05T18:14:06.319Z,8.90
2022-11-05T18:16:35.447Z,8.80
2022-11-05T18:19:05.619Z,8.80
2022-11-05T18:21:33.975Z,8.80
2022-11-05T18:24:04.752Z,8.80
2022-11-05T18:26:34.387Z,8.80
2022-11-05T18:29:03.311Z,8.90
2022-11-05T18:31:32.202Z,8.90
2022-11-05T18:34:01.110Z,8.80
2022-11-05T18:36:32.288Z,8.90
2022-11-05T18:39:02.447Z,8.90
2022-11-05T18:41:30.986Z,8.90
2022-11-05T18:44:00.988Z,8.90
2022-11-05T18:46:56.569Z,8.90
2022-11-05T18:49:18.883Z,8.90
2022-11-05T18:51:48.741Z,8.80
2022-11-05T18:54:17.568Z,8.90
2022-11-05T18:56:46.233Z,8.90
2022-11-05T18:59:35.972Z,8.90
2022-11-05T19:02:04.253Z,8.80
2022-11-05T19:04:33.076Z,8.90
2022-11-05T19:07:05.163Z,8.80
2022-11-05T19:09:34.715Z,8.80
2022-11-05T19:12:03.258Z,8.80
2022-11-05T19:14:31.655Z,8.80
2022-11-05T19:17:01.713Z,8.80
2022-11-05T19:19:31.053Z,8.80
2022-11-05T19:21:59.996Z,8.80
2022-11-05T19:24:29.686Z,8.70
2022-11-05T19:26:58.478Z,8.70
2022-11-05T19:29:27.359Z,8.70
2022-11-05T19:31:55.827Z,8.70
2022-11-05T19:34:24.067Z,8.70
2022-11-05T19:36:52.999Z,8.80
2022-11-05T19:39:21.605Z,8.70
2022-11-05T19:41:51.370Z,8.70
2022-11-05T19:44:20.096Z,8.80
2022-11-05T19:46:48.275Z,8.70
2022-11-05T19:49:17.017Z,8.70
2022-11-05T19:51:45.254Z,8.70
2022-11-05T19:54:13.975Z,8.60
2022-11-05T19:56:42.209Z,8.60
2022-11-05T19:59:13.575Z,8.50
2022-11-05T20:01:41.922Z,8.50
2022-11-05T20:04:11.851Z,8.50
2022-11-05T20:06:41.184Z,8.40
2022-11-05T20:09:27.545Z,8.40
2022-11-05T20:11:57.331Z,8.30
2022-11-05T20:14:27.798Z,8.20
2022-11-05T20:16:56.270Z,8.20
2022-11-05T20:19:24.604Z,8.20
2022-11-05T20:21:53.413Z,8.20
2022-11-05T20:24:25.074Z,8.20
2022-11-05T20:26:55.438Z,8.10
2022-11-05T20:29:26.053Z,8.10
2022-11-05T20:31:58.292Z,8.10
2022-11-05T20:34:26.537Z,8.10
2022-11-05T20:36:54.716Z,8.10
2022-11-05T20:39:23.686Z,8.00
2022-11-05T20:41:52.793Z,8.00
2022-11-05T20:44:21.536Z,8.00
2022-11-05T20:46:49.864Z,8.00
2022-11-05T20:49:24.962Z,8.10
2022-11-05T20:51:54.173Z,8.10
2022-11-05T20:54:22.796Z,8.20
2022-11-05T20:56:51.027Z,8.20
2022-11-05T20:59:19.759Z,8.30
2022-11-05T21:01:48.139Z,8.40
2022-11-05T21:04:16.975Z,8.40
2022-11-05T21:06:46.579Z,8.30
2022-11-05T21:09:15.049Z,8.20
2022-11-05T21:12:00.329Z,7.80
2022-11-05T21:14:28.548Z,7.70
2022-11-05T21:16:57.168Z,7.60
2022-11-05T21:19:25.356Z,7.90
2022-11-05T21:21:55.357Z,7.50
2022-11-05T21:24:23.543Z,7.40
2022-11-05T21:26:52.673Z,7.30
2022-11-05T21:29:21.312Z,7.20
2022-11-05T21:31:49.776Z,7.10
2022-11-05T21:34:19.259Z,7.20
2022-11-05T21:36:48.029Z,7.10
2022-11-05T21:39:18.399Z,7.20
2022-11-05T21:41:46.577Z,7.10
2022-11-05T21:44:15.168Z,7.10
2022-11-05T21:46:43.415Z,7.10
2022-11-05T21:49:12.272Z,7.00
2022-11-05T21:51:58.518Z,7.00
2022-11-05T21:54:45.916Z,7.00
2022-11-05T21:57:34.936Z,7.00
2022-11-05T22:02:52.842Z,7.10
2022-11-05T22:05:21.376Z,7.00
2022-11-05T22:07:49.664Z,7.00
2022-11-05T22:10:19.763Z,7.00
2022-11-05T22:12:48.190Z,6.90
2022-11-05T22:15:16.683Z,6.90
2022-11-05T22:17:47.134Z,6.80
2022-11-05T22:20:16.900Z,6.70
2022-11-05T22:22:45.685Z,6.80
2022-11-05T22:25:14.752Z,6.80
2022-11-05T22:27:44.693Z,6.90
2022-11-05T22:30:15.264Z,7.00
2022-11-05T22:32:43.647Z,7.10
2022-11-05T22:35:12.396Z,7.00
2022-11-05T22:37:40.938Z,7.00
2022-11-05T22:40:11.247Z,7.00
2022-11-05T22:42:40.385Z,7.00
2022-11-05T22:45:11.071Z,7.10
2022-11-05T22:47:42.038Z,7.00
2022-11-05T22:50:11.204Z,7.00
2022-11-05T22:52:40.031Z,7.00
2022-11-05T22:55:08.930Z,7.10
2022-11-05T22:57:37.728Z,7.10
2022-11-05T23:00:13.647Z,7.20
2022-11-05T23:02:43.988Z,7.30
2022-11-05T23:05:12.467Z,7.30
2022-11-05T23:07:58.276Z,7.40
2022-11-05T23:10:44.257Z,7.30
2022-11-05T23:13:13.296Z,7.30
2022-11-05T23:15:59.067Z,7.30
2022-11-05T23:18:46.851Z,7.30
2022-11-05T23:21:32.888Z,7.40
2022-11-05T23:24:07.680Z,7.40
2022-11-05T23:26:52.502Z,7.30
2022-11-05T23:29:23.671Z,7.40
2022-11-05T23:32:10.731Z,7.30
2022-11-05T23:34:40.922Z,7.30
2022-11-05T23:37:26.620Z,7.30
2022-11-05T23:39:55.297Z,7.40
2022-11-05T23:42:41.314Z,7.40
2022-11-05T23:45:28.432Z,7.40
2022-11-05T23:48:15.155Z,7.40
2022-11-05T23:50:47.181Z,7.50
2022-11-05T23:53:16.372Z,7.60
2022-11-05T23:55:44.946Z,7.60
2022-11-05T23:58:13.360Z,7.60
